Station: Roseworthy  

  Atmospheric Gas Attenuation - ITU Rec 676-11   ----------------- dB/100km -----------------
Date Time Temp RH % AH g/m3 Dew Point Wind Direction Speed kph Gust kph Barometer mB Rainfall Since 9am 24GHz 47GHz 76GHz 122GHz 134GHz 241GHz
08/05 12:00 16.2 70 9.65 10.7 20 30 1030.6 0 21.7 27.5 43.6 114.3 110.6 381.4
08/05 11:50 15.9 71 9.61 10.7 20 24 1030.7 0 21.6 27.6 43.6 114.3 110.5 381.0
08/05 11:40 15.9 73 9.89 11.1 24 26 1030.8 0 22.2 28.0 44.7 117.4 114.3 394.3
08/05 11:30 15.6 74 9.84 11 22 28 1031 0 22.1 28.1 44.7 117.3 114.1 393.5
08/05 11:20 16.9 72 10.36 11.8 22 24 1031 0 23.1 28.5 46.1 121.1 119.2 411.6
08/05 11:10 15.5 75 9.91 11.1 17 20 1031.2 0 22.3 28.2 45.1 118.3 115.2 397.4
08/05 11:00 14.8 78 9.88 11 22 32 1031.4 0 22.2 28.4 45.4 119.0 115.9 399.6
08/05 10:50 15.3 73 9.53 10.5 20 24 1031.4 0 21.5 27.7 43.6 114.4 110.4 380.4
08/05 10:40 15.3 72 9.4 10.3 20 24 1031.4 0 21.2 27.4 43.1 113.0 108.6 374.2
08/05 10:30 15.3 72 9.4 10.3 20 32 1031.4 0 21.2 27.4 43.1 113.0 108.6 374.2
08/05 10:20 15.3 71 9.27 10.1 24 26 1031.4 0 20.9 27.2 42.6 111.6 106.9 368.1
08/05 10:10 15.2 72 9.35 10.2 19 22 1031.3 0 21.1 27.4 42.9 112.6 108.1 372.3
08/05 10:00 15.3 71 9.27 10.1 20 28 1031.2 0 20.9 27.2 42.5 111.5 106.8 368.1
08/05 09:50 15.1 71 9.16 9.9 20 26 1031.2 0 20.7 27.1 42.2 110.6 105.6 363.8
08/05 09:40 15.2 70 9.09 9.8 22 28 1031.1 0 20.5 27.0 41.9 109.7 104.6 360.1
08/05 09:30 15.2 69 8.96 9.6 20 26 1031.1 0 20.3 26.7 41.3 108.3 102.8 354.0
08/05 09:20 15.1 69 8.9 9.5 17 20 1031.1 0 20.1 26.7 41.1 107.8 102.2 351.7
08/05 09:10 15 71 9.1 9.8 20 24 1031.2 0 20.6 27.0 42.0 110.1 105.0 361.5
08/05 09:00 14.9 72 9.18 9.9 17 24 1031.2 0 20.7 27.2 42.4 111.1 106.2 365.7
08/05 08:50 14.9 72 9.18 9.9 15 17 1031 0 20.7 27.2 42.4 111.1 106.2 365.6
08/05 08:40 14.8 71 8.99 9.6 19 20 1030.9 0 20.3 26.9 41.7 109.2 103.8 357.2
08/05 08:30 14.7 72 9.07 9.7 15 20 1030.9 0 20.5 27.1 42.0 110.2 105.0 361.4
08/05 08:20 14.6 71 8.88 9.4 15 17 1030.9 0 20.1 26.8 41.3 108.2 102.5 352.9
08/05 08:10 14.5 72 8.96 9.5 17 22 1030.7 0 20.3 26.9 41.7 109.2 103.7 357.1
08/05 08:00 14.4 73 9.02 9.6 15 19 1030.6 0 20.4 27.1 42.0 110.0 104.7 360.3
08/05 07:50 14.3 73 8.97 9.5 13 15 1030.4 0 20.3 27.0 41.8 109.6 104.1 358.4
08/05 07:40 14.1 73 8.86 9.3 13 15 1030.3 0 20.1 26.9 41.5 108.7 102.9 354.1
08/05 07:30 13.9 74 8.87 9.3 9 13 1030 0 20.1 26.9 41.6 109.0 103.3 355.3
08/05 07:20 13.7 75 8.88 9.4 9 11 1030 0 20.2 27.0 41.7 109.4 103.7 356.7
08/05 07:10 13.7 75 8.88 9.4 11 11 1029.9 0 20.2 27.0 41.7 109.4 103.7 356.7
08/05 07:00 13.8 73 8.7 9 9 13 1029.8 0 19.8 26.7 40.9 107.3 101.1 347.7
08/05 06:50 13.9 73 8.75 9.1 9 11 1030 0 19.9 26.7 41.1 107.7 101.7 349.7
08/05 06:40 14 73 8.81 9.2 15 17 1030 0 20.0 26.8 41.3 108.2 102.3 352.1
08/05 06:30 14 73 8.81 9.2 15 20 1029.8 0 20.0 26.8 41.3 108.2 102.3 352.0
08/05 06:20 14 74 8.93 9.4 11 13 1029.9 0 20.3 27.0 41.8 109.5 103.9 357.7
08/05 06:10 14 73 8.81 9.2 15 17 1029.8 0 20.0 26.8 41.3 108.2 102.3 352.0
08/05 06:00 13.9 73 8.75 9.1 11 17 1029.7 0 19.9 26.7 41.1 107.7 101.6 349.6
08/05 05:50 13.9 73 8.75 9.1 13 13 1029.8 0 19.9 26.7 41.1 107.7 101.6 349.6
08/05 05:40 13.9 73 8.75 9.1 15 17 1029.7 0 19.9 26.7 41.1 107.7 101.6 349.6
08/05 05:30 13.9 72 8.63 8.9 15 20 1029.6 0 19.6 26.5 40.6 106.4 100.0 344.0
08/05 05:20 13.9 70 8.39 8.5 13 15 1029.8 0 19.1 26.1 39.6 103.8 96.8 332.8
08/05 05:10 13.8 71 8.46 8.6 11 11 1029.9 0 19.3 26.3 40.0 104.7 97.9 336.6
08/05 05:00 14.1 69 8.37 8.5 17 22 1029.7 0 19.1 26.1 39.5 103.3 96.3 331.1
08/05 04:50 13.9 70 8.39 8.5 13 15 1029.8 0 19.1 26.1 39.6 103.8 96.8 332.8
08/05 04:40 14 71 8.56 8.8 17 20 1029.7 0 19.5 26.4 40.3 105.5 99.0 340.3
08/05 04:30 14 72 8.68 9 15 20 1029.7 0 19.7 26.6 40.8 106.8 100.6 345.9
08/05 04:20 14 73 8.81 9.2 13 15 1029.8 0 20.0 26.8 41.3 108.2 102.3 352.0
08/05 04:10 14.1 72 8.74 9.1 15 17 1029.6 0 19.9 26.7 40.9 107.3 101.2 348.2
08/05 04:00 13.8 74 8.82 9.3 9 15 1029.5 0 20.0 26.9 41.4 108.5 102.7 353.3
08/05 03:50 13.6 75 8.83 9.3 7 9 1029.7 0 20.1 27.0 41.6 109.0 103.1 354.7
08/05 03:40 13.6 75 8.83 9.3 7 9 1029.7 0 20.1 27.0 41.6 109.0 103.1 354.7
08/05 03:30 13.6 75 8.83 9.3 9 11 1029.6 0 20.1 27.0 41.6 108.9 103.1 354.7
08/05 03:20 13.6 75 8.83 9.3 9 11 1029.7 0 20.1 27.0 41.6 109.0 103.1 354.7
08/05 03:10 13.7 73 8.64 9 7 7 1029.6 0 19.7 26.6 40.7 106.7 100.4 345.3
08/05 03:00 13.8 73 8.7 9 13 15 1029.7 0 19.8 26.7 40.9 107.3 101.1 347.7
08/05 02:50 13.8 73 8.7 9 13 17 1029.8 0 19.8 26.7 40.9 107.3 101.1 347.7
08/05 02:40 13.8 73 8.7 9 11 15 1029.9 0 19.8 26.7 41.0 107.3 101.1 347.8
08/05 02:30 13.7 73 8.64 9 9 13 1029.8 0 19.7 26.6 40.8 106.8 100.4 345.4
08/05 02:20 13.7 73 8.64 9 9 11 1029.8 0 19.7 26.6 40.8 106.8 100.4 345.4
08/05 02:10 13.8 72 8.58 8.8 13 17 1029.8 0 19.5 26.5 40.5 106.0 99.5 342.1
08/05 02:00 13.8 72 8.58 8.8 13 17 1029.8 0 19.5 26.5 40.5 106.0 99.5 342.1
08/05 01:50 13.8 72 8.58 8.8 15 19 1030 0 19.5 26.5 40.5 106.0 99.5 342.2
08/05 01:40 13.7 72 8.53 8.7 13 15 1030 0 19.4 26.4 40.3 105.6 99.0 340.3
08/05 01:30 13.7 70 8.29 8.3 13 24 1030 0 18.9 26.1 39.3 103.0 95.8 329.1
08/05 01:20 13.5 69 8.07 7.9 9 11 1030.1 0 18.5 25.8 38.6 100.9 93.1 319.8
08/05 01:10 13.5 68 7.95 7.7 9 11 1030.1 0 18.2 25.6 38.1 99.6 91.6 314.3
08/05 01:00 13.5 67 7.84 7.5 11 15 1030.2 0 18.0 25.4 37.7 98.5 90.1 309.3
08/05 00:50 13.6 66 7.77 7.4 13 15 1030.2 0 17.8 25.3 37.3 97.6 89.1 305.7
08/05 00:40 13.7 64 7.58 7 15 17 1030.2 0 17.4 24.9 36.5 95.5 86.5 296.7
08/05 00:30 13.7 64 7.58 7 13 17 1030 0 17.4 24.9 36.5 95.5 86.5 296.6
08/05 00:20 13.6 66 7.77 7.4 15 17 1030.3 0 17.8 25.3 37.3 97.6 89.1 305.7
08/05 00:10 13.5 68 7.95 7.7 13 15 1030.3 0 18.2 25.6 38.1 99.7 91.6 314.3
08/05 00:00 13.3 71 8.2 8.2 9 15 1030.3 0 18.7 26.0 39.2 102.6 95.1 326.7
07/05 23:50 13.3 73 8.43 8.6 9 11 1030.3 0 19.2 26.4 40.1 105.1 98.2 337.4
07/05 23:40 13.3 73 8.43 8.6 9 11 1030.2 0 19.2 26.4 40.1 105.1 98.2 337.4
07/05 23:30 13.3 73 8.43 8.6 11 17 1030.2 0 19.2 26.4 40.1 105.1 98.2 337.4
07/05 23:20 13.3 73 8.43 8.6 11 13 1030.2 0 19.2 26.4 40.1 105.1 98.2 337.4
07/05 23:10 13.2 74 8.5 8.7 15 17 1030.2 0 19.4 26.5 40.5 106.0 99.2 341.1
07/05 23:00 13.1 76 8.67 9 9 13 1030.3 0 19.8 26.9 41.2 108.0 101.6 349.6
07/05 22:50 13.2 76 8.73 9.1 11 11 1030.4 0 19.9 26.9 41.4 108.5 102.3 352.0
07/05 22:40 13.1 76 8.67 9 13 15 1030.5 0 19.8 26.9 41.2 108.0 101.7 349.6
07/05 22:30 13.1 76 8.67 9 11 17 1030.6 0 19.8 26.9 41.2 108.0 101.7 349.7
07/05 22:20 13.2 75 8.61 8.9 15 17 1030.7 0 19.6 26.7 40.9 107.2 100.7 346.4
07/05 22:10 13.1 76 8.67 9 19 22 1030.8 0 19.8 26.9 41.2 108.0 101.7 349.7
07/05 22:00 13.2 72 8.27 8.3 15 20 1030.8 0 18.9 26.2 39.6 103.5 96.2 330.5
07/05 21:50 12.7 73 8.13 8 9 11 1030.7 0 18.6 26.1 39.2 102.6 94.9 326.0
07/05 21:40 12.7 74 8.24 8.2 6 6 1030.7 0 18.9 26.3 39.7 103.8 96.4 331.2
07/05 21:30 12.7 73 8.13 8 6 7 1030.7 0 18.6 26.1 39.2 102.6 94.9 326.0
07/05 21:20 12.8 73 8.18 8.1 6 6 1030.6 0 18.7 26.2 39.4 103.1 95.5 327.9
07/05 21:10 12.8 72 8.07 7.9 7 7 1030.6 0 18.5 26.0 38.9 101.9 94.0 322.8
07/05 21:00 12.9 71 8 7.8 11 15 1030.6 0 18.3 25.8 38.6 101.0 93.0 319.1
07/05 20:50 12.9 70 7.89 7.6 13 15 1030.6 0 18.1 25.7 38.2 99.8 91.5 314.0
07/05 20:40 12.9 70 7.89 7.6 11 13 1030.6 0 18.1 25.7 38.2 99.8 91.5 314.0
07/05 20:30 12.2 73 7.88 7.5 2 13 1030.6 0 18.1 25.8 38.5 100.6 92.2 316.4
07/05 20:20 12 73 7.78 7.3 4 6 1030.6 0 17.9 25.7 38.1 99.8 91.1 312.5
07/05 20:10 12.1 73 7.83 7.4 6 7 1030.6 0 18.0 25.8 38.3 100.2 91.7 314.4
07/05 20:00 12.5 73 8.03 7.8 7 9 1030.7 0 18.4 26.0 38.9 101.8 93.8 322.2
07/05 19:50 13 71 8.05 7.9 7 9 1030.8 0 18.4 25.9 38.8 101.4 93.5 321.1
07/05 19:40 13.4 69 8.02 7.8 11 13 1030.7 0 18.4 25.7 38.4 100.6 92.6 318.0
07/05 19:30 13.6 68 8 7.8 11 17 1030.6 0 18.3 25.6 38.3 100.1 92.1 316.3

Last Refresh: 08-May-2026 12:08:18

Bureau of Meteorology